createdAt,value
2023-01-22T00:00:35.279Z,101002.88
2023-01-22T00:03:01.973Z,101008.72
2023-01-22T00:05:28.488Z,101005.78
2023-01-22T00:07:55.683Z,101001.53
2023-01-22T00:10:22.227Z,101012.47
2023-01-22T00:12:48.729Z,100993.88
2023-01-22T00:15:15.459Z,101004.97
2023-01-22T00:17:42.011Z,101017.31
2023-01-22T00:20:09.908Z,101005.38
2023-01-22T00:22:36.481Z,101009.81
2023-01-22T00:25:03.015Z,101003.84
2023-01-22T00:27:29.511Z,101013.06
2023-01-22T00:29:55.995Z,101001.75
2023-01-22T00:32:22.529Z,101008.84
2023-01-22T00:34:49.083Z,101010.50
2023-01-22T00:37:15.701Z,101018.78
2023-01-22T00:39:42.203Z,101023.00
2023-01-22T00:42:08.692Z,101021.19
2023-01-22T00:44:35.330Z,101024.66
2023-01-22T00:47:01.802Z,101031.19
2023-01-22T00:49:28.300Z,101028.75
2023-01-22T00:51:54.884Z,101027.09
2023-01-22T00:54:21.395Z,101039.38
2023-01-22T00:56:47.838Z,101035.28
2023-01-22T00:59:14.377Z,101045.63
2023-01-22T01:01:40.967Z,101036.75
2023-01-22T01:04:07.508Z,101031.97
2023-01-22T01:06:34.150Z,101031.25
2023-01-22T01:09:00.690Z,101039.03
2023-01-22T01:11:27.497Z,101045.84
2023-01-22T01:13:54.131Z,101039.03
2023-01-22T01:16:29.275Z,101041.06
2023-01-22T01:19:01.235Z,101034.47
2023-01-22T01:21:28.504Z,101034.47
2023-01-22T01:23:56.880Z,101030.56
2023-01-22T01:26:24.463Z,101026.81
2023-01-22T01:28:50.962Z,101039.81
2023-01-22T01:31:17.567Z,101035.50
2023-01-22T01:33:44.577Z,101063.81
2023-01-22T01:36:12.824Z,101028.00
2023-01-22T01:38:39.525Z,101037.16
2023-01-22T01:41:07.230Z,101026.34
2023-01-22T01:43:34.335Z,101020.09
2023-01-22T01:46:04.389Z,101036.06
2023-01-22T01:48:36.599Z,101036.47
2023-01-22T01:51:09.559Z,101040.78
2023-01-22T01:53:36.788Z,101034.66
2023-01-22T01:56:06.926Z,101035.84
2023-01-22T01:58:37.561Z,101031.06
2023-01-22T02:01:13.853Z,101039.72
2023-01-22T02:03:41.029Z,101043.28
2023-01-22T02:06:16.827Z,101039.53
2023-01-22T02:08:46.943Z,101033.28
2023-01-22T02:11:13.924Z,101033.97
2023-01-22T02:13:44.636Z,101039.66
2023-01-22T02:16:11.233Z,101042.16
2023-01-22T02:18:38.104Z,101037.38
2023-01-22T02:21:25.216Z,101030.09
2023-01-22T02:23:51.690Z,101030.63
2023-01-22T02:26:18.434Z,101043.03
2023-01-22T02:28:45.066Z,101040.41
2023-01-22T02:31:11.705Z,101041.88
2023-01-22T02:33:38.298Z,101033.00
2023-01-22T02:36:05.295Z,101032.44
2023-01-22T02:38:31.852Z,101040.41
2023-01-22T02:40:58.841Z,101040.75
2023-01-22T02:43:25.587Z,101034.94
2023-01-22T02:45:53.961Z,101042.97
2023-01-22T02:48:20.523Z,101033.19
2023-01-22T02:50:47.126Z,101033.69
2023-01-22T02:53:13.724Z,101045.13
2023-01-22T02:55:40.312Z,101048.72
2023-01-22T02:58:06.888Z,101050.47
2023-01-22T03:00:33.527Z,101051.47
2023-01-22T03:03:00.098Z,101056.19
2023-01-22T03:05:26.847Z,101052.41
2023-01-22T03:07:53.381Z,101057.56
2023-01-22T03:10:21.193Z,101049.91
2023-01-22T03:12:48.281Z,101062.00
2023-01-22T03:15:15.101Z,101065.19
2023-01-22T03:17:41.583Z,101050.75
2023-01-22T03:20:09.008Z,101062.63
2023-01-22T03:22:35.598Z,101060.28
2023-01-22T03:25:02.390Z,101064.50
2023-01-22T03:27:31.412Z,101058.66
2023-01-22T03:29:58.081Z,101066.34
2023-01-22T03:32:24.741Z,101075.66
2023-01-22T03:34:51.824Z,101074.91
2023-01-22T03:37:18.449Z,101078.81
2023-01-22T03:39:45.037Z,101079.63
2023-01-22T03:42:11.604Z,101084.63
2023-01-22T03:44:38.198Z,101084.91
2023-01-22T03:47:04.738Z,101084.00
2023-01-22T03:49:31.362Z,101089.16
2023-01-22T03:51:57.842Z,101085.25
2023-01-22T03:54:24.373Z,101087.34
2023-01-22T03:56:51.026Z,101084.91
2023-01-22T03:59:17.627Z,101083.94
2023-01-22T04:01:44.162Z,101092.41
2023-01-22T04:04:10.668Z,101092.63
2023-01-22T04:06:37.219Z,101085.47
2023-01-22T04:09:03.803Z,101085.59
2023-01-22T04:11:30.433Z,101079.22
2023-01-22T04:13:57.289Z,101085.34
2023-01-22T04:16:23.820Z,101080.75
2023-01-22T04:18:50.441Z,101082.69
2023-01-22T04:21:16.966Z,101085.34
2023-01-22T04:23:43.513Z,101077.28
2023-01-22T04:26:10.391Z,101084.91
2023-01-22T04:28:36.823Z,101083.81
2023-01-22T04:31:03.432Z,101086.59
2023-01-22T04:33:30.207Z,101089.34
2023-01-22T04:35:56.779Z,101093.94
2023-01-22T04:38:23.303Z,101089.16
2023-01-22T04:40:50.147Z,101091.50
2023-01-22T04:43:17.203Z,101086.28
2023-01-22T04:45:43.872Z,101091.44
2023-01-22T04:48:10.701Z,101089.91
2023-01-22T04:50:37.316Z,101093.03
2023-01-22T04:53:04.055Z,101095.19
2023-01-22T04:55:31.064Z,101099.91
2023-01-22T04:57:59.555Z,101098.78
2023-01-22T05:00:27.353Z,101101.56
2023-01-22T05:03:01.982Z,101102.25
2023-01-22T05:05:28.705Z,101104.91
2023-01-22T05:07:55.690Z,101101.44
2023-01-22T05:10:22.749Z,101107.91
2023-01-22T05:12:50.070Z,101144.75
2023-01-22T05:15:24.119Z,101116.78
2023-01-22T05:17:52.597Z,101116.69
2023-01-22T05:20:19.403Z,101120.56
2023-01-22T05:22:46.040Z,101122.88
2023-01-22T05:25:13.353Z,101124.50
2023-01-22T05:27:39.879Z,101129.91
2023-01-22T05:30:09.455Z,101131.81
2023-01-22T05:32:36.018Z,101138.50
2023-01-22T05:35:03.322Z,101138.91
2023-01-22T05:37:31.885Z,101140.75
2023-01-22T05:39:58.547Z,101150.84
2023-01-22T05:42:25.079Z,101147.69
2023-01-22T05:44:51.575Z,101143.75
2023-01-22T05:47:18.382Z,101152.38
2023-01-22T05:49:44.947Z,101156.28
2023-01-22T05:52:11.452Z,101152.38
2023-01-22T05:54:38.846Z,101170.50
2023-01-22T05:57:06.058Z,101154.50
2023-01-22T05:59:32.959Z,101160.66
2023-01-22T06:01:59.629Z,101170.03
2023-01-22T06:04:26.221Z,101170.88
2023-01-22T06:06:52.771Z,101175.03
2023-01-22T06:09:20.065Z,101169.66
2023-01-22T06:11:46.637Z,101169.94
2023-01-22T06:14:13.567Z,101176.97
2023-01-22T06:16:40.319Z,101174.75
2023-01-22T06:19:07.004Z,101171.88
2023-01-22T06:21:33.626Z,101188.28
2023-01-22T06:24:00.191Z,101178.22
2023-01-22T06:26:26.802Z,101179.47
2023-01-22T06:28:53.266Z,101183.50
2023-01-22T06:31:20.000Z,101189.13
2023-01-22T06:33:46.613Z,101187.03
2023-01-22T06:36:13.162Z,101198.44
2023-01-22T06:38:39.841Z,101198.34
2023-01-22T06:41:06.437Z,101194.31
2023-01-22T06:43:32.952Z,101208.44
2023-01-22T06:45:59.653Z,101199.47
2023-01-22T06:48:26.280Z,101211.41
2023-01-22T06:50:57.500Z,101206.50
2023-01-22T06:53:24.121Z,101214.63
2023-01-22T06:55:50.702Z,101215.09
2023-01-22T06:58:17.498Z,101222.81
2023-01-22T07:00:44.126Z,101219.69
2023-01-22T07:03:11.709Z,101224.06
2023-01-22T07:05:38.187Z,101222.25
2023-01-22T07:08:05.102Z,101218.28
2023-01-22T07:10:31.586Z,101225.59
2023-01-22T07:12:58.488Z,101228.50
2023-01-22T07:15:25.986Z,101227.91
2023-01-22T07:17:54.079Z,101237.78
2023-01-22T07:20:22.402Z,101235.41
2023-01-22T07:22:49.223Z,101241.78
2023-01-22T07:25:15.883Z,101242.69
2023-01-22T07:27:42.475Z,101252.38
2023-01-22T07:30:10.064Z,101251.16
2023-01-22T07:32:36.837Z,101254.47
2023-01-22T07:35:03.448Z,101264.31
2023-01-22T07:37:30.050Z,101253.06
2023-01-22T07:39:56.593Z,101258.41
2023-01-22T07:42:23.277Z,101270.72
2023-01-22T07:44:49.847Z,101254.81
2023-01-22T07:47:16.334Z,101266.38
2023-01-22T07:49:42.875Z,101261.06
2023-01-22T07:52:09.473Z,101265.63
2023-01-22T07:54:35.997Z,101269.72
2023-01-22T07:57:03.334Z,101266.28
2023-01-22T07:59:29.852Z,101263.56
2023-01-22T08:01:56.475Z,101269.13
2023-01-22T08:04:23.737Z,101266.22
2023-01-22T08:06:50.336Z,101274.03
2023-01-22T08:09:16.828Z,101277.28
2023-01-22T08:11:43.368Z,101267.75
2023-01-22T08:14:10.009Z,101278.06
2023-01-22T08:16:36.632Z,101278.34
2023-01-22T08:19:03.197Z,101273.59
2023-01-22T08:21:29.744Z,101280.63
2023-01-22T08:23:56.295Z,101283.34
2023-01-22T08:26:22.831Z,101285.56
2023-01-22T08:28:49.356Z,101288.06
2023-01-22T08:31:26.899Z,101288.72
2023-01-22T08:33:54.549Z,101294.56
2023-01-22T08:36:20.998Z,101295.56
2023-01-22T08:38:47.493Z,101291.16
2023-01-22T08:41:14.031Z,101297.59
2023-01-22T08:43:41.664Z,101300.63
2023-01-22T08:46:08.263Z,101299.47
2023-01-22T08:48:34.821Z,101296.81
2023-01-22T08:51:01.499Z,101305.13
2023-01-22T08:53:28.323Z,101300.75
2023-01-22T08:55:55.270Z,101299.84
2023-01-22T08:58:21.769Z,101302.63
2023-01-22T09:00:48.975Z,101306.22
2023-01-22T09:03:15.542Z,101301.22
2023-01-22T09:05:42.084Z,101302.78
2023-01-22T09:08:08.718Z,101307.09
2023-01-22T09:10:35.341Z,101302.34
2023-01-22T09:13:02.206Z,101302.25
2023-01-22T09:15:28.707Z,101303.25
2023-01-22T09:17:55.483Z,101303.16
2023-01-22T09:20:22.260Z,101306.06
2023-01-22T09:22:49.084Z,101304.75
2023-01-22T09:25:16.150Z,101304.28
2023-01-22T09:27:42.904Z,101295.97
2023-01-22T09:30:10.178Z,101331.47
2023-01-22T09:32:37.282Z,101311.13
2023-01-22T09:35:03.979Z,101304.88
2023-01-22T09:37:30.513Z,101309.31
2023-01-22T09:39:57.112Z,101300.88
2023-01-22T09:42:29.235Z,101296.28
2023-01-22T09:45:01.729Z,101300.97
2023-01-22T09:47:40.972Z,101305.22
2023-01-22T09:50:17.511Z,101307.06
2023-01-22T09:52:44.419Z,101303.03
2023-01-22T09:55:16.181Z,101300.03
2023-01-22T09:57:48.254Z,101303.06
2023-01-22T10:00:21.415Z,101307.06
2023-01-22T10:02:54.176Z,101303.94
2023-01-22T10:06:03.909Z,101304.25
2023-01-22T10:08:40.057Z,101304.09
2023-01-22T10:11:09.753Z,101330.09
2023-01-22T10:13:39.890Z,101307.28
2023-01-22T10:16:07.028Z,101307.34
2023-01-22T10:18:42.154Z,101297.50
2023-01-22T10:21:29.761Z,101299.03
2023-01-22T10:23:57.288Z,101309.94
2023-01-22T10:26:37.818Z,101302.44
2023-01-22T10:29:11.541Z,101303.31
2023-01-22T10:31:40.206Z,101304.84
2023-01-22T10:34:14.463Z,101299.59
2023-01-22T10:36:41.018Z,101299.97
2023-01-22T10:39:15.128Z,101302.78
2023-01-22T10:41:43.562Z,101301.31
2023-01-22T10:44:16.661Z,101300.06
2023-01-22T10:46:43.386Z,101301.31
2023-01-22T10:49:24.884Z,101312.63
2023-01-22T10:51:57.285Z,101301.31
2023-01-22T10:54:23.814Z,101315.38
2023-01-22T10:56:50.987Z,101307.56
2023-01-22T10:59:21.949Z,101311.06
2023-01-22T11:01:50.928Z,101306.47
2023-01-22T11:04:25.803Z,101312.31
2023-01-22T11:07:14.885Z,101303.97
2023-01-22T11:10:06.521Z,101306.84
2023-01-22T11:12:38.122Z,101305.34
2023-01-22T11:15:16.577Z,101302.59
2023-01-22T11:17:49.359Z,101306.81
2023-01-22T11:20:23.278Z,101304.16
2023-01-22T11:23:03.055Z,101332.56
2023-01-22T11:25:56.580Z,101300.91
2023-01-22T11:28:55.111Z,101305.50
2023-01-22T11:31:43.610Z,101308.44
2023-01-22T11:34:43.967Z,101306.09
2023-01-22T11:37:18.701Z,101310.03
2023-01-22T11:40:03.692Z,101310.09
2023-01-22T11:42:56.335Z,101312.19
2023-01-22T11:45:50.785Z,101319.31
2023-01-22T11:48:26.921Z,101319.31
2023-01-22T11:51:23.151Z,101319.56
2023-01-22T11:53:55.487Z,101320.47
2023-01-22T11:56:40.711Z,101315.28
2023-01-22T11:59:36.264Z,101315.13
2023-01-22T12:02:41.143Z,101312.44
2023-01-22T12:05:10.445Z,101313.34
2023-01-22T12:07:48.668Z,101311.00
2023-01-22T12:10:30.645Z,101317.66
2023-01-22T12:13:01.568Z,101316.44
2023-01-22T12:15:28.225Z,101325.84
2023-01-22T12:18:22.684Z,101323.56
2023-01-22T12:21:00.592Z,101327.53
2023-01-22T12:23:44.939Z,101326.19
2023-01-22T12:26:17.361Z,101321.13
2023-01-22T12:28:53.643Z,101325.00
2023-01-22T12:31:33.703Z,101338.47
2023-01-22T12:34:04.049Z,101334.56
2023-01-22T12:36:32.535Z,101334.84
2023-01-22T12:39:28.700Z,101332.13
2023-01-22T12:42:17.001Z,101338.72
2023-01-22T12:45:16.676Z,101345.00
2023-01-22T12:47:45.941Z,101342.84
2023-01-22T12:50:18.073Z,101341.84
2023-01-22T12:52:44.748Z,101348.97
2023-01-22T12:55:30.789Z,101332.44
2023-01-22T12:57:58.525Z,101339.56
2023-01-22T13:00:35.695Z,101345.44
2023-01-22T13:03:38.349Z,101341.13
2023-01-22T13:06:19.718Z,101336.06
2023-01-22T13:08:46.841Z,101332.50
2023-01-22T13:11:27.038Z,101332.72
2023-01-22T13:14:09.940Z,101336.13
2023-01-22T13:16:41.434Z,101343.47
2023-01-22T13:19:20.011Z,101336.44
2023-01-22T13:21:48.763Z,101330.22
2023-01-22T13:24:18.172Z,101335.91
2023-01-22T13:26:59.808Z,101329.03
2023-01-22T13:29:30.036Z,101331.53
2023-01-22T13:32:00.636Z,101336.69
2023-01-22T13:34:29.136Z,101334.41
2023-01-22T13:36:56.272Z,101332.75
2023-01-22T13:39:29.725Z,101334.88
2023-01-22T13:42:05.159Z,101329.56
2023-01-22T13:44:37.867Z,101331.69
2023-01-22T13:47:05.398Z,101343.75
2023-01-22T13:49:34.433Z,101339.97
2023-01-22T13:52:07.475Z,101342.97
2023-01-22T13:54:42.657Z,101343.81
2023-01-22T13:57:13.790Z,101347.91
2023-01-22T13:59:40.367Z,101352.38
2023-01-22T14:02:19.277Z,101351.09
2023-01-22T14:04:46.666Z,101360.47
2023-01-22T14:07:37.138Z,101360.84
2023-01-22T14:10:16.262Z,101360.22
2023-01-22T14:12:43.724Z,101359.31
2023-01-22T14:15:21.588Z,101352.72
2023-01-22T14:17:50.417Z,101349.69
2023-01-22T14:20:17.667Z,101347.66
2023-01-22T14:22:44.432Z,101355.78
2023-01-22T14:25:11.025Z,101347.91
2023-01-22T14:27:49.485Z,101357.00
2023-01-22T14:30:19.127Z,101355.19
2023-01-22T14:32:46.282Z,101369.09
2023-01-22T14:35:16.763Z,101362.28
2023-01-22T14:37:43.472Z,101359.78
2023-01-22T14:40:12.580Z,101361.06
2023-01-22T14:42:39.731Z,101369.03
2023-01-22T14:45:07.280Z,101361.22
2023-01-22T14:47:36.108Z,101375.78
2023-01-22T14:50:03.425Z,101369.03
2023-01-22T14:52:30.091Z,101368.97
2023-01-22T14:54:56.541Z,101377.19
2023-01-22T14:57:24.427Z,101382.56
2023-01-22T14:59:51.477Z,101382.78
2023-01-22T15:02:18.229Z,101381.56
2023-01-22T15:04:44.948Z,101390.06
2023-01-22T15:07:11.981Z,101387.13
2023-01-22T15:09:39.340Z,101386.09
2023-01-22T15:12:06.339Z,101395.19
2023-01-22T15:14:33.096Z,101386.03
2023-01-22T15:16:59.628Z,101384.91
2023-01-22T15:19:29.433Z,101383.94
2023-01-22T15:21:58.068Z,101385.47
2023-01-22T15:24:26.654Z,101382.97
2023-01-22T15:26:53.284Z,101388.03
2023-01-22T15:29:19.935Z,101388.78
2023-01-22T15:31:46.524Z,101395.59
2023-01-22T15:34:13.067Z,101391.03
2023-01-22T15:36:39.629Z,101385.88
2023-01-22T15:39:06.725Z,101391.78
2023-01-22T15:41:35.324Z,101396.88
2023-01-22T15:44:04.477Z,101387.25
2023-01-22T15:46:37.182Z,101399.28
2023-01-22T15:49:05.056Z,101401.03
2023-01-22T15:51:32.124Z,101404.34
2023-01-22T15:54:00.661Z,101391.69
2023-01-22T15:56:29.746Z,101396.84
2023-01-22T15:58:58.019Z,101394.91
2023-01-22T16:01:26.525Z,101404.28
2023-01-22T16:03:53.974Z,101400.81
2023-01-22T16:06:26.489Z,101401.00
2023-01-22T16:08:55.934Z,101404.22
2023-01-22T16:11:22.502Z,101398.38
2023-01-22T16:13:49.416Z,101402.75
2023-01-22T16:16:27.763Z,101396.84
2023-01-22T16:18:55.132Z,101407.75
2023-01-22T16:21:22.637Z,101398.44
2023-01-22T16:23:54.197Z,101398.63
2023-01-22T16:26:26.583Z,101410.06
2023-01-22T16:28:54.902Z,101412.19
2023-01-22T16:31:24.885Z,101408.03
2023-01-22T16:33:55.198Z,101418.94
2023-01-22T16:36:24.617Z,101424.78
2023-01-22T16:38:51.641Z,101417.97
2023-01-22T16:41:24.467Z,101425.31
2023-01-22T16:44:02.004Z,101416.78
2023-01-22T16:46:31.474Z,101411.94
2023-01-22T16:49:07.494Z,101417.47
2023-01-22T16:51:39.215Z,101415.56
2023-01-22T16:54:07.005Z,101419.84
2023-01-22T16:56:34.312Z,101418.50
2023-01-22T16:59:01.150Z,101421.59
2023-01-22T17:01:29.955Z,101417.59
2023-01-22T17:03:56.608Z,101418.44
2023-01-22T17:06:30.636Z,101418.75
2023-01-22T17:08:57.634Z,101423.78
2023-01-22T17:11:24.182Z,101425.56
2023-01-22T17:13:51.121Z,101422.22
2023-01-22T17:16:19.030Z,101421.84
2023-01-22T17:18:45.959Z,101423.59
2023-01-22T17:21:16.863Z,101425.31
2023-01-22T17:23:43.922Z,101433.81
2023-01-22T17:26:13.185Z,101430.47
2023-01-22T17:28:39.871Z,101429.81
2023-01-22T17:31:25.012Z,101433.69
2023-01-22T17:33:52.167Z,101440.63
2023-01-22T17:36:18.868Z,101435.47
2023-01-22T17:38:45.442Z,101433.41
2023-01-22T17:41:15.204Z,101431.47
2023-01-22T17:43:42.150Z,101437.19
2023-01-22T17:46:11.616Z,101436.25
2023-01-22T17:48:39.261Z,101439.31
2023-01-22T17:51:08.588Z,101435.59
2023-01-22T17:53:39.412Z,101438.09
2023-01-22T17:56:15.278Z,101440.81
2023-01-22T17:58:47.430Z,101447.38
2023-01-22T18:01:15.064Z,101445.25
2023-01-22T18:03:41.879Z,101442.66
2023-01-22T18:06:09.005Z,101442.66
2023-01-22T18:08:36.919Z,101444.97
2023-01-22T18:11:16.351Z,101453.31
2023-01-22T18:13:43.795Z,101447.38
2023-01-22T18:16:14.418Z,101452.47
2023-01-22T18:18:42.291Z,101459.56
2023-01-22T18:21:14.875Z,101465.56
2023-01-22T18:23:42.114Z,101470.97
2023-01-22T18:26:09.719Z,101471.66
2023-01-22T18:28:36.900Z,101469.03
2023-01-22T18:31:12.309Z,101469.44
2023-01-22T18:33:39.946Z,101474.00
2023-01-22T18:36:09.077Z,101472.63
2023-01-22T18:38:36.319Z,101470.00
2023-01-22T18:41:07.792Z,101479.72
2023-01-22T18:43:34.613Z,101479.16
2023-01-22T18:46:06.792Z,101479.16
2023-01-22T18:48:33.667Z,101482.25
2023-01-22T18:51:00.393Z,101481.97
2023-01-22T18:53:28.328Z,101479.91
2023-01-22T18:55:59.485Z,101487.13
2023-01-22T18:58:26.321Z,101483.78
2023-01-22T19:00:57.188Z,101492.72
2023-01-22T19:03:25.599Z,101485.69
2023-01-22T19:05:52.577Z,101493.41
2023-01-22T19:08:21.289Z,101494.31
2023-01-22T19:10:47.831Z,101495.78
2023-01-22T19:13:14.932Z,101489.50
2023-01-22T19:15:41.605Z,101491.88
2023-01-22T19:18:08.206Z,101487.88
2023-01-22T19:20:36.608Z,101496.44
2023-01-22T19:23:04.053Z,101495.91
2023-01-22T19:25:30.616Z,101494.03
2023-01-22T19:27:57.754Z,101493.84
2023-01-22T19:30:24.432Z,101492.94
2023-01-22T19:32:55.113Z,101501.22
2023-01-22T19:35:21.908Z,101494.00
2023-01-22T19:37:49.275Z,101495.75
2023-01-22T19:40:15.910Z,101499.03
2023-01-22T19:42:42.381Z,101498.72
2023-01-22T19:45:09.052Z,101505.88
2023-01-22T19:47:35.599Z,101493.31
2023-01-22T19:50:02.127Z,101509.38
2023-01-22T19:52:28.847Z,101504.44
2023-01-22T19:54:55.358Z,101506.94
2023-01-22T19:57:21.858Z,101519.75
2023-01-22T19:59:52.254Z,101519.06
2023-01-22T20:02:20.811Z,101525.16
2023-01-22T20:04:47.492Z,101527.69
2023-01-22T20:07:14.080Z,101529.63
2023-01-22T20:09:40.635Z,101534.06
2023-01-22T20:12:07.453Z,101528.91
2023-01-22T20:14:36.618Z,101533.50
2023-01-22T20:17:03.401Z,101531.88
2023-01-22T20:19:30.091Z,101532.91
2023-01-22T20:21:56.829Z,101538.31
2023-01-22T20:24:23.648Z,101539.94
2023-01-22T20:26:56.174Z,101545.53
2023-01-22T20:29:22.849Z,101540.13
2023-01-22T20:31:53.378Z,101550.53
2023-01-22T20:34:19.997Z,101540.84
2023-01-22T20:36:46.883Z,101541.28
2023-01-22T20:39:13.958Z,101535.03
2023-01-22T20:41:40.498Z,101537.81
2023-01-22T20:44:07.326Z,101534.59
2023-01-22T20:46:33.835Z,101540.91
2023-01-22T20:49:00.431Z,101539.75
2023-01-22T20:51:28.975Z,101534.19
2023-01-22T20:53:57.127Z,101531.81
2023-01-22T20:56:29.459Z,101529.38
2023-01-22T20:59:15.400Z,101535.88
2023-01-22T21:01:42.028Z,101535.41
2023-01-22T21:04:08.880Z,101541.78
2023-01-22T21:06:37.012Z,101534.78
2023-01-22T21:09:04.297Z,101543.34
2023-01-22T21:11:32.450Z,101549.75
2023-01-22T21:14:00.522Z,101553.25
2023-01-22T21:16:30.428Z,101551.69
2023-01-22T21:19:14.449Z,101564.44
2023-01-22T21:21:41.087Z,101556.19
2023-01-22T21:24:08.146Z,101566.88
2023-01-22T21:26:35.109Z,101556.84
2023-01-22T21:29:04.614Z,101564.75
2023-01-22T21:31:31.577Z,101560.97
2023-01-22T21:34:00.671Z,101570.63
2023-01-22T21:36:27.204Z,101560.31
2023-01-22T21:38:53.687Z,101567.41
2023-01-22T21:41:20.431Z,101566.75
2023-01-22T21:43:47.407Z,101562.69
2023-01-22T21:46:13.969Z,101569.19
2023-01-22T21:48:40.569Z,101565.09
2023-01-22T21:51:07.110Z,101573.25
2023-01-22T21:53:33.716Z,101570.59
2023-01-22T21:56:00.316Z,101571.00
2023-01-22T21:58:27.147Z,101570.56
2023-01-22T22:00:53.731Z,101569.91
2023-01-22T22:03:20.795Z,101566.56
2023-01-22T22:05:57.619Z,101566.31
2023-01-22T22:08:24.146Z,101569.66
2023-01-22T22:10:53.939Z,101565.91
2023-01-22T22:13:21.557Z,101567.59
2023-01-22T22:15:48.199Z,101566.25
2023-01-22T22:18:14.914Z,101564.94
2023-01-22T22:20:41.405Z,101563.53
2023-01-22T22:23:07.918Z,101564.19
2023-01-22T22:25:34.443Z,101575.38
2023-01-22T22:28:01.305Z,101573.44
2023-01-22T22:30:27.897Z,101582.06
2023-01-22T22:32:54.466Z,101576.53
2023-01-22T22:35:22.049Z,101576.25
2023-01-22T22:37:48.617Z,101581.25
2023-01-22T22:40:15.404Z,101575.91
2023-01-22T22:42:41.935Z,101580.56
2023-01-22T22:45:08.860Z,101584.19
2023-01-22T22:47:36.762Z,101582.91
2023-01-22T22:50:04.783Z,101582.03
2023-01-22T22:52:33.681Z,101579.44
2023-01-22T22:55:00.431Z,101583.22
2023-01-22T22:57:26.975Z,101614.69
2023-01-22T22:59:53.533Z,101581.84
2023-01-22T23:02:21.691Z,101584.28
2023-01-22T23:04:48.280Z,101588.25
2023-01-22T23:07:14.769Z,101577.53
2023-01-22T23:09:41.810Z,101580.66
2023-01-22T23:12:08.330Z,101574.34
2023-01-22T23:14:34.928Z,101573.16
2023-01-22T23:17:01.528Z,101572.81
2023-01-22T23:19:28.177Z,101577.91
2023-01-22T23:21:57.323Z,101573.53
2023-01-22T23:24:24.240Z,101574.38
2023-01-22T23:26:51.662Z,101575.91
2023-01-22T23:29:21.559Z,101586.09
2023-01-22T23:31:49.191Z,101584.47
2023-01-22T23:34:18.638Z,101585.19
2023-01-22T23:36:46.973Z,101585.53
2023-01-22T23:39:15.746Z,101586.44
2023-01-22T23:41:42.793Z,101588.94
2023-01-22T23:44:09.891Z,101583.19
2023-01-22T23:46:36.511Z,101584.94
2023-01-22T23:49:03.849Z,101585.13
2023-01-22T23:51:30.751Z,101591.06
2023-01-22T23:53:57.329Z,101592.59
2023-01-22T23:56:27.421Z,101594.38
2023-01-22T23:58:55.109Z,101592.66
